メインページ
METAR-TAF:

METAR-TAF

空港 :

アルハンゲリスク, ロシア

緯度: 64-30N, 経度: 040-44E, 海抜: 13m

現時点の気象観測

当レポートは36分前の23:00(UTC)に作成
北東の風 8kt、北/北東からの間で変化する
気温 -6°C
湿度 73%
気圧 1006 hPa
視程10km以上
1,500メートル以下は雲なし、積乱雲なし

METAR: ULAA 232300Z 05004MPS 020V080 CAVOK M06/M10 Q1006 R08/CLRD70 NOSIG RMK QFE753/1004

時間: 02:36 (23:36 UTC)

予報

当レポートは3時間41分前の19:55(UTC)に作成
予報は23日の 21時(UTC)から 24日の 21時(UTC)まで有効
北東の風 10kt
視程10km以上
高度1200ftの千切れ雲あり
23日の 21時(UTC)から 23日の 24時(UTC)まで一時的に
北/北東の風 6kt
視程: 1000m
高度400ftの千切れ雲あり
高度1000ftの千切れ雲あり, 積乱雲.
にわか雪, 靄
24日の 00時(UTC)から 24日の 06時(UTC)まで一時的に
北東の風 6kt
視程: 0500m
高度200ftの千切れ雲あり
高度1000ftの千切れ雲あり, 積乱雲.
弱いにわか雪, 着氷性の霧

TAF: ULAA 231955Z 2321/2421 05005MPS 9999 BKN012 TEMPO 2321/2324 03003MPS 1000 SHSN BR BKN004 BKN010CB TEMPO 2400/2406 04003MPS 0500 -SHSN FZFG BKN002 BKN010CB

4,000以上の空港の気象観測と天気予報(METAR報とTAF報)

利用可能な観測所は地図上に黄色い丸と赤い丸で示す。

丸の上にカーソルを重ねると観測所名を参照できる。

次にクリックすると気象観測と天気予報を参照できる。

マップの切り替え:黒色「×」印の緑ボタンをクリックして拡大、「-」印の緑ボタンをクリックして縮小、緑色の三角印をクリックして隣りの地図に切り替え


METAR-TAF: